createdAt,value
2018-12-15T00:01:50.659Z,11.63
2018-12-15T00:04:20.312Z,11.83
2018-12-15T00:06:50.614Z,12.23
2018-12-15T00:09:20.210Z,10.10
2018-12-15T00:11:50.190Z,11.70
2018-12-15T00:14:19.799Z,12.57
2018-12-15T00:16:49.688Z,11.63
2018-12-15T00:19:19.415Z,10.43
2018-12-15T00:21:49.442Z,10.80
2018-12-15T00:24:19.102Z,10.43
2018-12-15T00:26:48.715Z,10.83
2018-12-15T00:29:18.356Z,10.47
2018-12-15T00:31:47.963Z,10.57
2018-12-15T00:34:17.639Z,11.13
2018-12-15T00:36:47.647Z,10.83
2018-12-15T00:39:17.378Z,10.50
2018-12-15T00:41:47.064Z,10.43
2018-12-15T00:44:16.818Z,10.10
2018-12-15T00:46:46.458Z,10.57
2018-12-15T00:49:16.078Z,10.33
2018-12-15T00:51:46.589Z,10.77
2018-12-15T00:54:16.496Z,9.87
2018-12-15T00:56:46.113Z,10.93
2018-12-15T00:59:15.865Z,10.93
2018-12-15T01:01:45.912Z,11.23
2018-12-15T01:04:15.596Z,10.93
2018-12-15T01:06:45.849Z,10.97
2018-12-15T01:09:15.457Z,12.47
2018-12-15T01:11:45.201Z,11.43
2018-12-15T01:14:14.747Z,11.80
2018-12-15T01:16:44.423Z,11.50
2018-12-15T01:19:14.029Z,11.40
2018-12-15T01:21:44.806Z,11.83
2018-12-15T01:24:14.441Z,12.43
2018-12-15T01:26:44.043Z,13.20
2018-12-15T01:29:13.629Z,14.03
2018-12-15T01:31:43.192Z,13.23
2018-12-15T01:34:12.870Z,14.27
2018-12-15T01:36:43.571Z,13.83
2018-12-15T01:39:13.314Z,13.60
2018-12-15T01:41:42.923Z,15.23
2018-12-15T01:44:12.689Z,13.83
2018-12-15T01:46:42.311Z,14.30
2018-12-15T01:49:12.015Z,14.97
2018-12-15T01:51:43.400Z,15.70
2018-12-15T01:54:13.215Z,14.17
2018-12-15T01:56:42.920Z,14.50
2018-12-15T01:59:12.525Z,15.87
2018-12-15T02:01:42.201Z,14.80
2018-12-15T02:04:11.842Z,14.63
2018-12-15T02:06:43.021Z,15.17
2018-12-15T02:09:12.820Z,14.67
2018-12-15T02:11:42.907Z,15.27
2018-12-15T02:14:12.684Z,14.83
2018-12-15T02:16:42.479Z,14.40
2018-12-15T02:19:12.162Z,15.87
2018-12-15T02:21:42.508Z,15.67
2018-12-15T02:24:12.241Z,15.43
2018-12-15T02:26:41.803Z,15.00
2018-12-15T02:29:13.458Z,15.67
2018-12-15T02:31:43.203Z,15.43
2018-12-15T02:34:12.928Z,15.50
2018-12-15T02:36:43.582Z,16.90
2018-12-15T02:39:13.268Z,17.03
2018-12-15T02:41:47.202Z,15.60
2018-12-15T02:44:14.631Z,15.70
2018-12-15T02:46:44.317Z,16.77
2018-12-15T02:49:13.949Z,16.03
2018-12-15T02:51:44.339Z,16.47
2018-12-15T02:54:13.985Z,16.77
2018-12-15T02:56:43.655Z,16.03
2018-12-15T02:59:13.275Z,17.17
2018-12-15T03:01:42.870Z,16.07
2018-12-15T03:04:12.670Z,16.90
2018-12-15T03:06:42.832Z,17.33
2018-12-15T03:09:13.535Z,17.17
2018-12-15T03:11:43.523Z,17.07
2018-12-15T03:14:13.179Z,17.17
2018-12-15T03:16:58.307Z,17.40
2018-12-15T03:19:28.019Z,17.93
2018-12-15T03:21:57.718Z,16.23
2018-12-15T03:24:34.065Z,19.33
2018-12-15T03:27:03.790Z,17.60
2018-12-15T03:29:33.396Z,16.87
2018-12-15T03:32:03.076Z,17.03
2018-12-15T03:34:32.683Z,18.20
2018-12-15T03:37:02.327Z,18.53
2018-12-15T03:39:31.952Z,19.13
2018-12-15T03:42:01.629Z,18.10
2018-12-15T03:44:31.272Z,17.47
2018-12-15T03:47:00.944Z,17.20
2018-12-15T03:49:30.526Z,18.60
2018-12-15T03:52:00.115Z,18.53
2018-12-15T03:54:29.745Z,19.23
2018-12-15T03:56:59.372Z,18.57
2018-12-15T03:59:29.293Z,18.97
2018-12-15T04:01:59.052Z,19.80
2018-12-15T04:04:29.918Z,18.00
2018-12-15T04:06:59.700Z,19.63
2018-12-15T04:09:29.460Z,17.90
2018-12-15T04:11:59.070Z,19.37
2018-12-15T04:14:28.711Z,20.17
2018-12-15T04:16:58.313Z,19.03
2018-12-15T04:19:27.973Z,19.27
2018-12-15T04:22:13.135Z,19.53
2018-12-15T04:24:43.630Z,18.20
2018-12-15T04:27:13.761Z,18.60
2018-12-15T04:29:43.391Z,18.50
2018-12-15T04:32:13.272Z,18.40
2018-12-15T04:34:42.987Z,18.77
2018-12-15T04:37:13.543Z,18.80
2018-12-15T04:39:43.810Z,19.87
2018-12-15T04:42:14.503Z,18.10
2018-12-15T04:44:44.232Z,19.40
2018-12-15T04:47:14.853Z,18.97
2018-12-15T04:49:44.606Z,18.93
2018-12-15T04:52:14.504Z,19.20
2018-12-15T04:54:45.314Z,19.53
2018-12-15T04:57:15.118Z,19.87
2018-12-15T04:59:44.709Z,18.53
2018-12-15T05:02:14.963Z,18.77
2018-12-15T05:04:44.603Z,18.77
2018-12-15T05:07:15.083Z,18.80
2018-12-15T05:09:45.460Z,20.50
2018-12-15T05:12:15.287Z,19.43
2018-12-15T05:14:44.917Z,19.27
2018-12-15T05:17:15.237Z,19.50
2018-12-15T05:19:44.881Z,19.90
2018-12-15T05:22:15.009Z,19.40
2018-12-15T05:24:45.782Z,19.57
2018-12-15T05:27:16.416Z,20.67
2018-12-15T05:29:46.088Z,18.93
2018-12-15T05:32:15.984Z,18.93
2018-12-15T05:34:45.735Z,20.37
2018-12-15T05:37:15.799Z,20.07
2018-12-15T05:39:46.232Z,22.10
2018-12-15T05:42:17.166Z,20.97
2018-12-15T05:44:46.865Z,21.53
2018-12-15T05:47:16.972Z,21.47
2018-12-15T05:49:46.605Z,21.77
2018-12-15T05:52:17.098Z,22.50
2018-12-15T05:54:47.170Z,21.60
2018-12-15T05:57:17.412Z,21.07
2018-12-15T05:59:47.288Z,21.77
2018-12-15T06:02:18.752Z,23.70
2018-12-15T06:04:48.817Z,20.93
2018-12-15T06:07:18.485Z,22.00
2018-12-15T06:09:48.674Z,22.10
2018-12-15T06:12:18.397Z,20.53
2018-12-15T06:15:12.806Z,21.43
2018-12-15T06:17:42.424Z,21.13
2018-12-15T06:20:12.607Z,21.60
2018-12-15T06:22:42.575Z,22.20
2018-12-15T06:25:13.133Z,20.87
2018-12-15T06:27:43.540Z,22.00
2018-12-15T06:30:14.927Z,21.17
2018-12-15T06:32:45.173Z,21.93
2018-12-15T06:35:15.788Z,24.10
2018-12-15T06:37:45.700Z,21.90
2018-12-15T06:40:15.422Z,22.87
2018-12-15T06:42:46.308Z,20.90
2018-12-15T06:45:16.168Z,20.10
2018-12-15T06:47:46.174Z,21.10
2018-12-15T06:50:15.979Z,21.07
2018-12-15T06:52:46.061Z,19.80
2018-12-15T06:55:17.994Z,18.97
2018-12-15T06:57:48.832Z,19.97
2018-12-15T07:00:18.575Z,20.30
2018-12-15T07:02:48.315Z,19.87
2018-12-15T07:05:17.893Z,20.87
2018-12-15T07:07:47.438Z,21.00
2018-12-15T07:10:17.194Z,20.03
2018-12-15T07:12:47.705Z,21.07
2018-12-15T07:15:17.422Z,22.83
2018-12-15T07:17:47.042Z,24.80
2018-12-15T07:20:16.694Z,23.53
2018-12-15T07:22:46.298Z,23.97
2018-12-15T07:25:15.952Z,25.63
2018-12-15T07:27:46.221Z,24.80
2018-12-15T07:30:16.812Z,26.83
2018-12-15T07:32:46.422Z,27.77
2018-12-15T07:35:16.029Z,27.57
2018-12-15T07:37:45.693Z,27.30
2018-12-15T07:40:15.295Z,26.17
2018-12-15T07:42:45.594Z,25.87
2018-12-15T07:45:15.122Z,25.03
2018-12-15T07:47:47.505Z,27.13
2018-12-15T07:50:17.077Z,27.47
2018-12-15T07:52:46.638Z,26.03
2018-12-15T07:55:16.224Z,24.50
2018-12-15T07:57:46.636Z,25.50
2018-12-15T08:00:16.272Z,24.93
2018-12-15T08:02:45.860Z,23.73
2018-12-15T08:05:15.460Z,24.27
2018-12-15T08:07:45.599Z,26.30
2018-12-15T08:13:08.956Z,26.10
2018-12-15T08:15:39.053Z,26.10
2018-12-15T08:18:08.730Z,26.30
2018-12-15T08:20:38.380Z,25.63
2018-12-15T08:23:08.317Z,26.43
2018-12-15T08:25:37.943Z,25.83
2018-12-15T08:28:11.252Z,26.87
2018-12-15T08:30:43.342Z,26.40
2018-12-15T08:33:12.916Z,26.10
2018-12-15T08:35:42.435Z,27.50
2018-12-15T08:38:12.179Z,25.53
2018-12-15T08:40:43.261Z,26.17
2018-12-15T08:43:13.194Z,27.03
2018-12-15T08:45:43.380Z,25.40
2018-12-15T08:48:13.032Z,26.77
2018-12-15T08:50:42.771Z,27.50
2018-12-15T08:53:12.437Z,25.87
2018-12-15T08:55:42.122Z,25.67
2018-12-15T08:58:11.743Z,26.43
2018-12-15T09:00:42.355Z,28.17
2018-12-15T09:03:11.971Z,27.50
2018-12-15T09:05:41.628Z,27.30
2018-12-15T09:08:11.265Z,27.30
2018-12-15T09:10:40.847Z,27.47
2018-12-15T09:13:10.396Z,26.37
2018-12-15T09:15:42.567Z,31.90
2018-12-15T09:18:12.395Z,27.73
2018-12-15T09:20:43.285Z,26.60
2018-12-15T09:23:13.038Z,26.70
2018-12-15T09:25:42.872Z,25.60
2018-12-15T09:28:12.587Z,26.03
2018-12-15T09:30:43.220Z,27.30
2018-12-15T09:33:12.810Z,23.80
2018-12-15T09:35:42.530Z,26.20
2018-12-15T09:38:12.205Z,26.10
2018-12-15T09:40:41.817Z,24.73
2018-12-15T09:43:11.428Z,24.67
2018-12-15T09:45:42.963Z,26.43
2018-12-15T09:48:12.593Z,24.97
2018-12-15T09:50:42.327Z,24.87
2018-12-15T09:53:11.965Z,26.40
2018-12-15T09:55:42.754Z,23.33
2018-12-15T09:58:15.345Z,25.37
2018-12-15T10:00:46.635Z,25.13
2018-12-15T10:03:16.466Z,25.30
2018-12-15T10:05:46.193Z,24.50
2018-12-15T10:08:15.938Z,25.13
2018-12-15T10:10:45.521Z,25.00
2018-12-15T10:13:15.448Z,24.97
2018-12-15T10:15:45.865Z,23.83
2018-12-15T10:18:18.681Z,23.93
2018-12-15T10:20:48.963Z,23.73
2018-12-15T10:23:19.741Z,24.47
2018-12-15T10:25:49.319Z,26.03
2018-12-15T10:28:18.867Z,23.87
2018-12-15T10:30:54.579Z,24.93
2018-12-15T10:33:24.923Z,24.13
2018-12-15T10:35:55.800Z,25.40
2018-12-15T10:38:34.402Z,25.87
2018-12-15T10:41:15.382Z,24.57
2018-12-15T10:43:53.379Z,25.23
2018-12-15T10:46:30.570Z,24.70
2018-12-15T10:49:07.292Z,24.40
2018-12-15T10:51:44.456Z,25.07
2018-12-15T10:54:25.878Z,24.47
2018-12-15T10:57:05.403Z,24.00
2018-12-15T10:59:44.304Z,23.40
2018-12-15T11:02:23.982Z,24.73
2018-12-15T11:05:05.909Z,24.50
2018-12-15T11:07:42.941Z,27.20
2018-12-15T11:10:24.224Z,27.30
2018-12-15T11:13:02.346Z,25.83
2018-12-15T11:15:37.854Z,27.20
2018-12-15T11:18:18.074Z,28.10
2018-12-15T11:20:58.103Z,27.20
2018-12-15T11:23:34.948Z,27.40
2018-12-15T11:26:22.786Z,27.30
2018-12-15T11:29:00.596Z,25.47
2018-12-15T11:31:43.431Z,25.03
2018-12-15T11:34:25.257Z,24.00
2018-12-15T11:37:05.202Z,24.10
2018-12-15T11:39:45.257Z,24.17
2018-12-15T11:42:24.034Z,23.43
2018-12-15T11:45:06.354Z,24.90
2018-12-15T11:47:48.669Z,25.60
2018-12-15T11:50:29.826Z,24.80
2018-12-15T11:53:10.443Z,24.90
2018-12-15T11:55:49.220Z,24.30
2018-12-15T11:58:29.078Z,24.67
2018-12-15T12:01:08.998Z,25.27
2018-12-15T12:03:51.838Z,24.93
2018-12-15T12:06:32.908Z,24.57
2018-12-15T12:09:15.901Z,25.80
2018-12-15T12:11:58.035Z,27.83
2018-12-15T12:14:38.157Z,27.67
2018-12-15T12:17:20.853Z,25.60
2018-12-15T12:19:56.919Z,25.63
2018-12-15T12:22:34.712Z,28.80
2018-12-15T12:25:05.136Z,26.70
2018-12-15T12:27:34.750Z,28.40
2018-12-15T12:30:04.742Z,28.00
2018-12-15T12:32:34.707Z,28.87
2018-12-15T12:35:04.717Z,28.50
2018-12-15T12:37:34.368Z,28.37
2018-12-15T12:40:05.385Z,28.37
2018-12-15T12:42:35.898Z,29.87
2018-12-15T12:45:06.404Z,28.07
2018-12-15T12:47:36.020Z,27.47
2018-12-15T12:50:06.910Z,28.17
2018-12-15T12:52:36.574Z,27.63
2018-12-15T12:55:06.542Z,27.10
2018-12-15T12:57:36.175Z,29.97
2018-12-15T13:00:06.592Z,27.90
2018-12-15T13:02:36.274Z,30.07
2018-12-15T13:05:06.970Z,28.63
2018-12-15T13:07:36.569Z,28.17
2018-12-15T13:10:06.931Z,29.37
2018-12-15T13:12:36.503Z,30.23
2018-12-15T13:15:06.897Z,29.27
2018-12-15T13:17:36.493Z,29.97
2018-12-15T13:20:06.878Z,29.57
2018-12-15T13:22:36.891Z,30.13
2018-12-15T13:25:07.882Z,27.97
2018-12-15T13:27:37.675Z,30.23
2018-12-15T13:30:08.502Z,29.40
2018-12-15T13:32:38.236Z,31.33
2018-12-15T13:35:08.034Z,31.63
2018-12-15T13:37:38.029Z,30.73
2018-12-15T13:40:09.317Z,32.50
2018-12-15T13:42:39.625Z,30.30
2018-12-15T13:45:10.167Z,31.87
2018-12-15T13:47:40.367Z,30.70
2018-12-15T13:50:10.913Z,33.67
2018-12-15T13:52:41.341Z,32.70
2018-12-15T13:55:11.272Z,31.47
2018-12-15T13:57:41.940Z,32.67
2018-12-15T14:00:11.986Z,35.27
2018-12-15T14:02:42.874Z,34.63
2018-12-15T14:05:12.783Z,33.37
2018-12-15T14:07:42.773Z,34.10
2018-12-15T14:10:12.644Z,35.47
2018-12-15T14:12:42.855Z,36.13
2018-12-15T14:15:12.720Z,35.13
2018-12-15T14:17:42.424Z,34.80
2018-12-15T14:20:16.775Z,34.77
2018-12-15T14:22:44.108Z,35.10
2018-12-15T14:25:13.908Z,35.00
2018-12-15T14:27:44.032Z,36.13
2018-12-15T14:30:13.659Z,35.37
2018-12-15T14:32:43.323Z,36.33
2018-12-15T14:35:12.977Z,37.07
2018-12-15T14:37:42.632Z,37.20
2018-12-15T14:40:13.142Z,34.97
2018-12-15T14:42:43.713Z,35.83
2018-12-15T14:45:16.430Z,35.40
2018-12-15T14:47:46.354Z,36.03
2018-12-15T14:50:15.995Z,36.63
2018-12-15T14:52:45.822Z,35.50
2018-12-15T14:55:15.832Z,37.07
2018-12-15T14:57:45.406Z,36.13
2018-12-15T15:00:15.050Z,35.33
2018-12-15T15:02:44.675Z,35.80
2018-12-15T15:05:14.296Z,35.30
2018-12-15T15:07:44.805Z,36.57
2018-12-15T15:10:14.649Z,34.10
2018-12-15T15:12:44.505Z,34.93
2018-12-15T15:15:14.125Z,36.77
2018-12-15T15:17:43.675Z,36.43
2018-12-15T15:20:13.783Z,36.30
2018-12-15T15:22:55.213Z,36.57
2018-12-15T15:25:25.317Z,37.17
2018-12-15T15:27:54.900Z,34.77
2018-12-15T15:30:24.522Z,36.50
2018-12-15T15:32:54.166Z,37.67
2018-12-15T15:35:23.819Z,37.43
2018-12-15T15:37:53.414Z,35.80
2018-12-15T15:40:23.225Z,36.77
2018-12-15T15:42:52.826Z,38.23
2018-12-15T15:45:23.745Z,36.90
2018-12-15T15:47:53.390Z,40.50
2018-12-15T15:50:23.136Z,37.90
2018-12-15T15:52:54.629Z,37.67
2018-12-15T15:55:24.711Z,35.77
2018-12-15T15:57:54.451Z,35.80
2018-12-15T16:00:24.114Z,35.27
2018-12-15T16:02:54.265Z,35.13
2018-12-15T16:05:24.003Z,35.47
2018-12-15T16:07:53.754Z,37.97
2018-12-15T16:10:23.935Z,37.10
2018-12-15T16:12:53.529Z,38.70
2018-12-15T16:15:23.235Z,39.90
2018-12-15T16:17:52.941Z,37.60
2018-12-15T16:20:22.899Z,41.43
2018-12-15T16:22:52.565Z,38.77
2018-12-15T16:25:22.954Z,39.60
2018-12-15T16:27:52.835Z,37.53
2018-12-15T16:30:22.643Z,38.43
2018-12-15T16:32:52.315Z,40.53
2018-12-15T16:35:22.284Z,40.47
2018-12-15T16:37:51.981Z,38.37
2018-12-15T16:40:22.362Z,40.70
2018-12-15T16:42:52.328Z,39.67
2018-12-15T16:45:22.158Z,41.30
2018-12-15T16:47:51.946Z,41.37
2018-12-15T16:50:21.652Z,41.50
2018-12-15T16:52:51.400Z,39.53
2018-12-15T16:55:21.958Z,38.87
2018-12-15T16:57:51.642Z,40.47
2018-12-15T17:00:21.485Z,39.53
2018-12-15T17:02:51.115Z,40.90
2018-12-15T17:05:20.781Z,40.63
2018-12-15T17:07:50.485Z,40.00
2018-12-15T17:10:20.778Z,39.23
2018-12-15T17:12:50.374Z,41.77
2018-12-15T17:15:19.996Z,40.57
2018-12-15T17:17:49.662Z,42.03
2018-12-15T17:20:19.266Z,40.70
2018-12-15T17:22:48.892Z,41.47
2018-12-15T17:25:21.705Z,42.03
2018-12-15T17:27:51.424Z,45.23
2018-12-15T17:30:21.034Z,43.10
2018-12-15T17:32:50.731Z,43.17
2018-12-15T17:35:20.619Z,43.33
2018-12-15T17:37:50.368Z,42.33
2018-12-15T17:40:20.522Z,39.77
2018-12-15T17:42:50.201Z,41.70
2018-12-15T17:45:19.977Z,40.73
2018-12-15T17:47:49.835Z,41.13
2018-12-15T17:50:19.529Z,40.70
2018-12-15T17:52:49.137Z,38.47
2018-12-15T17:55:19.148Z,40.57
2018-12-15T17:57:48.767Z,40.43
2018-12-15T18:00:18.635Z,39.67
2018-12-15T18:02:48.312Z,39.03
2018-12-15T18:05:18.025Z,39.80
2018-12-15T18:07:47.929Z,39.53
2018-12-15T18:10:18.668Z,39.73
2018-12-15T18:12:48.518Z,41.33
2018-12-15T18:15:18.515Z,39.63
2018-12-15T18:17:48.283Z,39.77
2018-12-15T18:20:17.905Z,38.60
2018-12-15T18:22:47.602Z,40.00
2018-12-15T18:25:18.053Z,40.27
2018-12-15T18:27:48.465Z,39.10
2018-12-15T18:32:58.885Z,39.13
2018-12-15T18:35:28.663Z,37.57
2018-12-15T18:37:58.302Z,40.83
2018-12-15T18:40:28.084Z,40.47
2018-12-15T18:42:57.810Z,40.17
2018-12-15T18:45:27.502Z,38.83
2018-12-15T18:47:57.194Z,37.73
2018-12-15T18:50:26.922Z,39.30
2018-12-15T18:52:56.680Z,40.53
2018-12-15T18:55:27.316Z,40.67
2018-12-15T18:57:56.952Z,42.63
2018-12-15T19:00:26.637Z,43.97
2018-12-15T19:02:57.380Z,47.13
2018-12-15T19:05:27.102Z,41.87
2018-12-15T19:07:57.063Z,41.77
2018-12-15T19:10:26.953Z,42.43
2018-12-15T19:12:56.936Z,39.73
2018-12-15T19:15:26.963Z,40.20
2018-12-15T19:17:57.389Z,39.30
2018-12-15T19:20:27.715Z,39.97
2018-12-15T19:23:02.388Z,39.93
2018-12-15T19:25:32.526Z,39.93
2018-12-15T19:28:02.369Z,39.60
2018-12-15T19:33:24.608Z,38.77
2018-12-15T19:35:54.473Z,41.30
2018-12-15T19:41:10.581Z,41.10
2018-12-15T19:43:41.108Z,43.53
2018-12-15T19:46:12.799Z,40.60
2018-12-15T19:48:43.628Z,39.97
2018-12-15T19:51:15.230Z,41.93
2018-12-15T19:53:45.278Z,41.17
2018-12-15T19:59:15.452Z,40.93
2018-12-15T20:01:50.773Z,47.40
2018-12-15T20:04:21.751Z,50.40
2018-12-15T20:06:52.175Z,43.43
2018-12-15T20:09:22.458Z,42.53
2018-12-15T20:11:52.534Z,40.73
2018-12-15T20:14:22.533Z,41.87
2018-12-15T20:16:53.855Z,40.30
2018-12-15T20:22:04.113Z,42.47
2018-12-15T20:24:34.405Z,40.63
2018-12-15T20:27:04.974Z,41.73
2018-12-15T20:29:34.971Z,43.63
2018-12-15T20:32:05.102Z,40.67
2018-12-15T20:34:35.302Z,41.67
2018-12-15T20:37:05.714Z,43.60
2018-12-15T20:39:35.517Z,40.70
2018-12-15T20:42:05.676Z,44.33
2018-12-15T20:44:41.676Z,40.80
2018-12-15T20:47:09.527Z,43.53
2018-12-15T20:49:39.470Z,45.10
2018-12-15T20:52:09.662Z,42.57
2018-12-15T20:54:41.244Z,42.90
2018-12-15T20:57:12.093Z,43.40
2018-12-15T20:59:42.382Z,46.43
2018-12-15T21:02:12.094Z,46.23
2018-12-15T21:04:41.805Z,48.67
2018-12-15T21:07:11.706Z,50.33
2018-12-15T21:09:42.472Z,50.20
2018-12-15T21:12:12.261Z,50.47
2018-12-15T21:14:41.825Z,47.43
2018-12-15T21:17:11.515Z,50.57
2018-12-15T21:19:47.685Z,50.10
2018-12-15T21:22:13.259Z,50.70
2018-12-15T21:24:43.346Z,49.27
2018-12-15T21:27:13.014Z,51.93
2018-12-15T21:29:42.609Z,47.07
2018-12-15T21:32:12.563Z,47.40
2018-12-15T21:34:42.350Z,46.13
2018-12-15T21:37:12.057Z,46.30
2018-12-15T21:39:43.512Z,44.57
2018-12-15T21:42:14.428Z,43.20
2018-12-15T21:44:44.302Z,44.10
2018-12-15T21:47:14.215Z,45.37
2018-12-15T21:49:44.151Z,46.80
2018-12-15T21:52:14.179Z,43.63
2018-12-15T21:54:44.575Z,44.67
2018-12-15T21:57:14.270Z,43.47
2018-12-15T21:59:46.911Z,45.43
2018-12-15T22:02:16.672Z,41.93
2018-12-15T22:04:46.546Z,40.57
2018-12-15T22:07:18.074Z,40.30
2018-12-15T22:09:47.744Z,40.20
2018-12-15T22:12:17.513Z,39.20
2018-12-15T22:14:47.087Z,41.13
2018-12-15T22:17:16.793Z,39.47
2018-12-15T22:19:46.603Z,38.83
2018-12-15T22:22:17.106Z,37.50
2018-12-15T22:24:47.407Z,35.57
2018-12-15T22:27:17.319Z,36.60
2018-12-15T22:29:47.068Z,37.07
2018-12-15T22:32:16.896Z,37.23
2018-12-15T22:34:46.692Z,35.73
2018-12-15T22:37:16.722Z,37.03
2018-12-15T22:39:46.616Z,38.30
2018-12-15T22:42:16.545Z,39.13
2018-12-15T22:44:46.423Z,35.77
2018-12-15T22:47:16.288Z,37.20
2018-12-15T22:49:46.438Z,37.00
2018-12-15T22:52:39.220Z,36.73
2018-12-15T22:55:09.706Z,36.70
2018-12-15T22:57:41.387Z,36.07
2018-12-15T23:00:13.324Z,35.73
2018-12-15T23:02:44.689Z,37.13
2018-12-15T23:05:14.774Z,37.30
2018-12-15T23:07:44.597Z,34.93
2018-12-15T23:10:14.464Z,33.50
2018-12-15T23:12:44.952Z,34.67
2018-12-15T23:15:14.879Z,34.50
2018-12-15T23:17:45.382Z,33.70
2018-12-15T23:20:17.104Z,33.97
2018-12-15T23:22:47.378Z,33.90
2018-12-15T23:25:17.311Z,33.50
2018-12-15T23:27:48.069Z,34.93
2018-12-15T23:30:17.940Z,33.40
2018-12-15T23:32:51.161Z,33.17
2018-12-15T23:35:25.219Z,35.47
2018-12-15T23:37:54.970Z,35.43
2018-12-15T23:40:25.161Z,35.33
2018-12-15T23:42:55.050Z,33.27
2018-12-15T23:45:25.261Z,32.77
2018-12-15T23:47:55.016Z,32.30
2018-12-15T23:50:25.203Z,30.07
2018-12-15T23:52:55.921Z,29.07
2018-12-15T23:55:26.190Z,28.87
2018-12-15T23:57:56.217Z,28.53
